createdAt,value
2022-10-10T00:03:07.907Z,19.30
2022-10-10T00:08:09.820Z,19.40
2022-10-10T00:13:11.484Z,19.20
2022-10-10T00:18:13.173Z,19.00
2022-10-10T00:23:14.864Z,18.90
2022-10-10T00:28:17.223Z,18.90
2022-10-10T00:33:19.521Z,18.90
2022-10-10T00:38:21.206Z,18.80
2022-10-10T00:43:25.338Z,18.80
2022-10-10T00:48:34.545Z,18.60
2022-10-10T00:53:43.297Z,18.60
2022-10-10T00:58:47.625Z,18.70
2022-10-10T01:03:49.649Z,18.70
2022-10-10T01:08:51.463Z,19.20
2022-10-10T01:14:34.977Z,19.00
2022-10-10T01:19:57.390Z,18.90
2022-10-10T01:25:37.062Z,18.60
2022-10-10T01:30:41.311Z,18.40
2022-10-10T01:35:49.737Z,18.70
2022-10-10T01:41:02.851Z,18.80
2022-10-10T01:46:17.224Z,18.50
2022-10-10T01:51:24.477Z,18.50
2022-10-10T01:56:36.221Z,18.60
2022-10-10T02:02:21.701Z,18.50
2022-10-10T02:07:43.855Z,18.50
2022-10-10T02:12:48.885Z,19.00
2022-10-10T02:17:52.338Z,18.80
2022-10-10T02:22:55.255Z,18.60
2022-10-10T02:28:13.519Z,18.90
2022-10-10T02:33:20.400Z,19.10
2022-10-10T02:38:22.807Z,19.00
2022-10-10T02:43:25.348Z,18.90
2022-10-10T02:48:27.025Z,18.40
2022-10-10T02:53:28.985Z,18.30
2022-10-10T02:58:30.800Z,18.30
2022-10-10T03:03:32.489Z,18.20
2022-10-10T03:08:34.192Z,18.20
2022-10-10T03:13:35.821Z,18.50
2022-10-10T03:18:38.276Z,18.40
2022-10-10T03:23:40.083Z,18.20
2022-10-10T03:28:41.810Z,18.10
2022-10-10T03:33:43.495Z,18.30
2022-10-10T03:38:45.142Z,18.20
2022-10-10T03:43:46.811Z,18.50
2022-10-10T03:48:48.787Z,18.40
2022-10-10T03:53:50.490Z,18.00
2022-10-10T03:58:52.175Z,18.00
2022-10-10T04:03:53.835Z,18.10
2022-10-10T04:08:55.526Z,18.00
2022-10-10T04:13:57.212Z,18.10
2022-10-10T04:18:58.938Z,18.10
2022-10-10T04:24:00.672Z,18.10
2022-10-10T04:29:02.717Z,18.10
2022-10-10T04:34:04.479Z,18.40
2022-10-10T04:39:06.436Z,18.50
2022-10-10T04:44:08.096Z,18.50
2022-10-10T04:49:10.022Z,18.70
2022-10-10T04:54:11.727Z,18.50
2022-10-10T04:59:13.440Z,18.40
2022-10-10T05:04:15.158Z,18.70
2022-10-10T05:09:16.793Z,18.40
2022-10-10T05:14:18.590Z,18.20
2022-10-10T05:19:20.386Z,18.10
2022-10-10T05:24:22.678Z,17.90
2022-10-10T05:29:24.401Z,17.90
2022-10-10T05:34:26.105Z,18.00
2022-10-10T05:39:27.844Z,18.20
2022-10-10T05:44:31.124Z,18.10
2022-10-10T05:49:32.766Z,18.00
2022-10-10T05:54:34.536Z,18.10
2022-10-10T05:59:36.203Z,18.30
2022-10-10T06:04:37.937Z,18.30
2022-10-10T06:09:39.677Z,18.00
2022-10-10T06:14:41.430Z,18.20
2022-10-10T06:19:43.201Z,18.30
2022-10-10T06:24:48.440Z,18.20
2022-10-10T06:29:52.558Z,18.40
2022-10-10T06:34:54.222Z,18.40
2022-10-10T06:39:55.888Z,18.60
2022-10-10T06:44:57.596Z,18.50
2022-10-10T06:49:59.303Z,18.60
2022-10-10T06:55:01.046Z,18.30
2022-10-10T07:00:03.449Z,18.40
2022-10-10T07:05:05.574Z,18.60
2022-10-10T07:10:09.029Z,18.80
2022-10-10T07:15:10.758Z,18.70
2022-10-10T07:20:12.400Z,19.10
2022-10-10T07:25:14.109Z,19.20
2022-10-10T07:30:16.093Z,19.10
2022-10-10T07:35:17.837Z,19.00
2022-10-10T07:40:19.497Z,18.80
2022-10-10T07:45:21.271Z,19.00
2022-10-10T07:50:22.939Z,18.70
2022-10-10T07:55:24.782Z,18.90
2022-10-10T08:00:26.494Z,18.90
2022-10-10T08:05:28.270Z,19.20
2022-10-10T08:10:29.926Z,19.70
2022-10-10T08:15:33.918Z,19.90
2022-10-10T08:20:36.244Z,19.60
2022-10-10T08:25:38.148Z,20.10
2022-10-10T08:30:42.630Z,20.40
2022-10-10T08:35:44.339Z,20.20
2022-10-10T08:40:52.155Z,20.00
2022-10-10T08:45:57.381Z,20.30
2022-10-10T08:51:06.198Z,20.40
2022-10-10T08:56:11.129Z,20.40
2022-10-10T09:01:24.873Z,20.40
2022-10-10T09:06:46.779Z,20.50
2022-10-10T09:12:15.599Z,20.50
2022-10-10T09:17:23.498Z,20.90
2022-10-10T09:22:29.379Z,21.00
2022-10-10T09:27:40.477Z,21.20
2022-10-10T09:32:45.442Z,20.80
2022-10-10T09:37:51.300Z,20.90
2022-10-10T09:42:54.032Z,20.50
2022-10-10T09:47:56.337Z,20.40
2022-10-10T09:52:58.702Z,20.60
2022-10-10T09:58:14.747Z,20.30
2022-10-10T10:03:19.164Z,20.50
2022-10-10T10:08:35.205Z,20.70
2022-10-10T10:13:37.731Z,20.60
2022-10-10T10:18:46.139Z,20.60
2022-10-10T10:23:55.340Z,20.80
2022-10-10T10:28:57.783Z,21.40
2022-10-10T10:34:31.962Z,21.20
2022-10-10T10:40:01.711Z,22.10
2022-10-10T10:45:21.773Z,24.00
2022-10-10T10:50:47.545Z,24.30
2022-10-10T10:56:01.462Z,24.60
2022-10-10T11:01:28.002Z,24.20
2022-10-10T11:07:17.137Z,24.60
2022-10-10T11:12:31.017Z,23.40
2022-10-10T11:18:00.130Z,23.70
2022-10-10T11:23:08.793Z,23.40
2022-10-10T11:28:17.098Z,23.10
2022-10-10T11:33:33.886Z,23.70
2022-10-10T11:38:40.447Z,23.30
2022-10-10T11:43:57.707Z,23.40
2022-10-10T11:49:16.429Z,23.70
2022-10-10T11:54:37.148Z,23.60
2022-10-10T11:59:49.851Z,23.60
2022-10-10T12:04:52.181Z,23.40
2022-10-10T12:10:09.011Z,23.50
2022-10-10T12:15:17.478Z,23.80
2022-10-10T12:20:28.332Z,23.80
2022-10-10T12:25:38.926Z,24.00
2022-10-10T12:30:57.126Z,23.70
2022-10-10T12:36:18.410Z,24.70
2022-10-10T12:41:20.195Z,24.80
2022-10-10T12:46:33.993Z,25.30
2022-10-10T12:51:36.669Z,25.00
2022-10-10T12:56:41.740Z,24.40
2022-10-10T13:01:49.902Z,23.50
2022-10-10T13:06:58.607Z,23.40
2022-10-10T13:12:03.170Z,23.30
2022-10-10T13:17:19.250Z,23.30
2022-10-10T13:22:21.781Z,23.00
2022-10-10T13:27:32.397Z,22.90
2022-10-10T13:32:35.701Z,22.70
2022-10-10T13:37:37.440Z,22.60
2022-10-10T13:42:40.560Z,22.20
2022-10-10T13:48:00.569Z,22.10
2022-10-10T13:53:24.041Z,22.00
2022-10-10T13:58:28.287Z,21.70
2022-10-10T14:03:32.968Z,21.60
2022-10-10T14:08:34.699Z,21.30
2022-10-10T14:13:38.844Z,21.30
2022-10-10T14:18:40.476Z,21.30
2022-10-10T14:23:42.270Z,21.20
2022-10-10T14:28:44.805Z,21.00
2022-10-10T14:33:46.529Z,20.90
2022-10-10T14:38:48.199Z,21.00
2022-10-10T14:43:50.031Z,21.00
2022-10-10T14:48:51.782Z,21.10
2022-10-10T14:54:10.735Z,20.90
2022-10-10T14:59:45.764Z,20.90
2022-10-10T15:04:41.675Z,20.80
2022-10-10T15:10:10.876Z,21.10
2022-10-10T15:15:08.387Z,20.90
2022-10-10T15:20:12.395Z,20.70
2022-10-10T15:25:14.197Z,20.60
2022-10-10T15:30:16.035Z,20.60
2022-10-10T15:35:23.208Z,20.70
2022-10-10T15:40:26.727Z,20.70
2022-10-10T15:45:51.432Z,20.60
2022-10-10T15:50:50.829Z,20.50
2022-10-10T15:55:52.466Z,20.50
2022-10-10T16:00:54.244Z,20.50
2022-10-10T16:05:55.924Z,20.60
2022-10-10T16:10:57.613Z,20.40
2022-10-10T16:16:01.089Z,20.40
2022-10-10T16:21:12.466Z,20.50
2022-10-10T16:26:16.540Z,20.30
2022-10-10T16:31:19.514Z,20.30
2022-10-10T16:36:23.993Z,20.30
2022-10-10T16:41:47.181Z,20.20
2022-10-10T16:46:49.487Z,20.20
2022-10-10T16:51:51.168Z,20.10
2022-10-10T16:56:52.834Z,19.90
2022-10-10T17:01:54.532Z,19.90
2022-10-10T17:06:56.242Z,19.90
2022-10-10T17:11:57.927Z,19.80
2022-10-10T17:17:14.917Z,19.80
2022-10-10T17:22:17.222Z,19.80
2022-10-10T17:27:19.026Z,19.80
2022-10-10T17:32:21.376Z,19.70
2022-10-10T17:37:23.061Z,19.60
2022-10-10T17:42:24.912Z,19.50
2022-10-10T17:47:27.306Z,19.40
2022-10-10T17:52:28.968Z,19.40
2022-10-10T17:57:30.742Z,19.40
2022-10-10T18:02:32.408Z,19.30
2022-10-10T18:07:34.102Z,19.30
2022-10-10T18:12:36.134Z,19.20
2022-10-10T18:17:37.848Z,19.10
2022-10-10T18:22:39.549Z,19.00
2022-10-10T18:27:41.247Z,18.80
2022-10-10T18:32:42.932Z,18.90
2022-10-10T18:37:44.698Z,18.90
2022-10-10T18:42:46.424Z,18.70
2022-10-10T18:47:48.120Z,18.80
2022-10-10T18:52:49.999Z,18.70
2022-10-10T18:57:51.711Z,18.50
2022-10-10T19:02:53.397Z,18.60
2022-10-10T19:07:55.431Z,18.30
2022-10-10T19:12:58.862Z,18.20
2022-10-10T19:18:02.292Z,18.20
2022-10-10T19:23:06.498Z,18.10
2022-10-10T19:28:10.664Z,17.90
2022-10-10T19:33:17.285Z,17.90
2022-10-10T19:38:23.875Z,17.70
2022-10-10T19:43:25.937Z,17.70
2022-10-10T19:48:27.612Z,17.70
2022-10-10T19:53:29.256Z,17.50
2022-10-10T19:58:30.991Z,17.50
2022-10-10T20:03:32.650Z,17.50
2022-10-10T20:08:34.986Z,17.30
2022-10-10T20:13:36.751Z,17.20
2022-10-10T20:18:42.433Z,17.10
2022-10-10T20:23:46.639Z,17.00
2022-10-10T20:28:49.709Z,17.00
2022-10-10T20:33:53.748Z,17.00
2022-10-10T20:39:00.935Z,17.00
2022-10-10T20:44:04.816Z,17.10
2022-10-10T20:49:11.126Z,17.10
2022-10-10T20:54:12.739Z,17.00
2022-10-10T20:59:15.156Z,16.80
2022-10-10T21:04:17.315Z,16.90
2022-10-10T21:09:19.022Z,16.80
2022-10-10T21:14:20.768Z,16.80
2022-10-10T21:19:41.358Z,17.10
2022-10-10T21:24:43.051Z,16.80
2022-10-10T21:29:44.729Z,16.60
2022-10-10T21:34:46.389Z,16.40
2022-10-10T21:39:48.076Z,16.50
2022-10-10T21:44:49.675Z,16.30
2022-10-10T21:49:51.383Z,16.40
2022-10-10T21:54:53.070Z,16.30
2022-10-10T21:59:54.804Z,16.50
2022-10-10T22:04:56.474Z,16.60
2022-10-10T22:09:58.648Z,16.50
2022-10-10T22:15:00.910Z,16.40
2022-10-10T22:20:03.209Z,16.30
2022-10-10T22:25:07.129Z,16.20
2022-10-10T22:30:11.152Z,16.30
2022-10-10T22:35:12.920Z,16.20
2022-10-10T22:40:14.637Z,16.20
2022-10-10T22:45:17.068Z,16.50
2022-10-10T22:50:19.255Z,16.40
2022-10-10T22:55:20.884Z,16.30
2022-10-10T23:00:22.587Z,16.20
2022-10-10T23:05:25.829Z,16.10
2022-10-10T23:10:27.511Z,16.20
2022-10-10T23:15:29.257Z,16.30
2022-10-10T23:20:31.043Z,16.20
2022-10-10T23:25:32.712Z,16.20
2022-10-10T23:30:34.608Z,15.80
2022-10-10T23:35:36.313Z,15.20
2022-10-10T23:40:38.019Z,15.30
2022-10-10T23:45:42.745Z,15.30
2022-10-10T23:50:44.816Z,15.50
2022-10-10T23:55:47.272Z,15.60
